Fort Harrison, MT (59636)

9:35 AM MST on February 21, 2017 (GMT -0700)
West Side / Kessler | | Change Station
Active Advisory: Special Statement

Elev 3967 ft 46.61 °N, 112.07 °W | Updated 4 seconds ago

Partly Cloudy
Partly Cloudy
36.7 °F
Feels Like 37 °F
N
1.7
Wind Variable Wind from SW

Today
High -- | Low -- °F
--% Chance of Precip.
Yesterday
High -- | Low -- °F
Precip. -- in
Pressure 29.72 in
Visibility 10.0 miles
Clouds Clear
Windchill 37 °F
Dew Point 32 °F
Humidity 83%
Rainfall 0.00 in
Snow Depth Not available.
7:21 AM 6:03 PM
Waning Crescent, 24% visible
METAR KHLN 211553Z 28004KT 10SM CLR 00/M01 A2964 RMK AO2 SLP063 T00001006
Pressure 29.72 in
Visibility 10.0 miles
Clouds Clear
Windchill 37 °F
Dew Point 32 °F
Humidity 83%
Rainfall 0.00 in
Snow Depth Not available.
7:21 AM 6:03 PM
Waning Crescent, 24% visible
METAR KHLN 211553Z 28004KT 10SM CLR 00/M01 A2964 RMK AO2 SLP063 T00001006

Get Your Daily Forecast Email!

Thanks for signing up!

Be on the lookout for a verification email in your inbox.

You'll start receiving the daily forecast at 8 AM.

×

10-Day Weather Forecast

Almanac

Astronomy

Feb. 21, 2017 Rise Set
Actual Time
Civil Twilight
Nautical Twilight
Astronomical Twilight
Moon
Length of Visible Light
Length of Day
Tomorrow will be .
, % of the Moon is Illuminated

Today's Extremes

State Highs State Lows

Community

WunderPhotos

Upload Photos

1,962,540 photos uploaded!

WunderBlog® & News

Nearby

Air Quality

  Air Quality AQ Index Pollutant
Not available.

Snow Depth

Station Depth Elevation

Earthquake Activity

City Distance Mag. Time & Date
Minimum magnitude displayed is 2.5.

Coastal Water Temperatures

Place Temperature

Stations

Nearby Weather Stations

Station Location Temp. Windchill Dew Point Humidity Wind Precip. Elev Updated Type
                   

Watches & Warnings

Special Statement
Issued: 7:23 AM MST Feb. 21, 2017 – National Weather Service

... Rain and isolated freezing rain to bring a few slick spots this
morning...

A frontal boundary has brought areas of rain... and isolated
freezing rain this morning from Helena to Great Falls to
Lewistown. This band is expected to move northeast through the
morning. Areas that receive rain or freezing rain may see areas
of slick roads at times through the morning hours. Travelers
should drive with caution. Those walking on sidewalks or other
slick surfaces should also exercise caution.



723 am MST Tue Feb 21 2017

... Rain and isolated freezing rain to bring a few slick spots this
morning...

A frontal boundary has brought areas of rain... and isolated
freezing rain this morning from Helena to Great Falls to
Lewistown. This band is expected to move northeast through the
morning. Areas that receive rain or freezing rain may see areas
of slick roads at times through the morning hours. Travelers
should drive with caution. Those walking on sidewalks or other
slick surfaces should also exercise caution.